createdAt,value
2018-05-13T00:03:19.891Z,17.45
2018-05-13T00:08:15.660Z,17.34
2018-05-13T00:13:11.850Z,17.31
2018-05-13T00:18:09.179Z,17.30
2018-05-13T00:23:04.331Z,17.26
2018-05-13T00:28:00.946Z,17.23
2018-05-13T00:32:56.747Z,17.22
2018-05-13T00:37:54.093Z,17.14
2018-05-13T00:42:49.763Z,17.09
2018-05-13T00:47:45.487Z,17.11
2018-05-13T00:52:41.636Z,17.09
2018-05-13T00:57:38.492Z,17.04
2018-05-13T01:02:33.947Z,16.97
2018-05-13T01:07:29.727Z,16.97
2018-05-13T01:12:25.625Z,17.04
2018-05-13T01:17:21.524Z,16.99
2018-05-13T01:22:17.193Z,16.96
2018-05-13T01:27:12.901Z,16.86
2018-05-13T01:32:08.745Z,16.74
2018-05-13T01:37:04.754Z,16.74
2018-05-13T01:42:00.634Z,16.75
2018-05-13T01:46:56.439Z,16.79
2018-05-13T01:51:52.214Z,16.71
2018-05-13T01:56:48.062Z,16.71
2018-05-13T02:01:45.514Z,16.65
2018-05-13T02:06:41.315Z,16.57
2018-05-13T02:11:37.217Z,16.65
2018-05-13T02:16:32.927Z,16.57
2018-05-13T02:21:28.826Z,16.64
2018-05-13T02:26:24.631Z,16.66
2018-05-13T02:31:20.687Z,16.58
2018-05-13T02:36:17.980Z,16.61
2018-05-13T02:41:13.224Z,16.57
2018-05-13T02:46:09.583Z,16.65
2018-05-13T02:51:05.387Z,16.57
2018-05-13T02:56:01.028Z,16.54
2018-05-13T03:00:57.494Z,16.71
2018-05-13T03:05:53.530Z,17.01
2018-05-13T03:10:49.083Z,16.93
2018-05-13T03:15:45.032Z,16.84
2018-05-13T03:20:41.057Z,16.93
2018-05-13T03:25:36.899Z,16.75
2018-05-13T03:30:33.480Z,16.89
2018-05-13T03:35:28.857Z,17.09
2018-05-13T03:40:25.064Z,17.26
2018-05-13T03:45:21.910Z,17.29
2018-05-13T03:50:18.168Z,17.42
2018-05-13T03:55:14.933Z,17.34
2018-05-13T04:00:10.740Z,17.06
2018-05-13T04:05:07.236Z,17.04
2018-05-13T04:10:03.093Z,16.93
2018-05-13T04:14:59.867Z,17.02
2018-05-13T04:19:55.191Z,17.19
2018-05-13T04:24:51.893Z,17.22
2018-05-13T04:29:48.025Z,17.24
2018-05-13T04:34:43.888Z,17.14
2018-05-13T04:39:39.950Z,16.97
2018-05-13T04:44:35.633Z,17.01
2018-05-13T04:49:31.345Z,16.91
2018-05-13T04:54:27.148Z,16.66
2018-05-13T04:59:22.877Z,16.72
2018-05-13T05:04:18.844Z,16.75
2018-05-13T05:09:15.725Z,16.83
2018-05-13T05:14:11.887Z,16.96
2018-05-13T05:19:08.077Z,17.05
2018-05-13T05:24:05.282Z,17.23
2018-05-13T05:29:01.989Z,17.27
2018-05-13T05:33:57.595Z,17.33
2018-05-13T05:38:53.773Z,17.54
2018-05-13T05:43:50.377Z,17.27
2018-05-13T05:48:46.960Z,17.27
2018-05-13T05:53:42.862Z,17.63
2018-05-13T05:58:40.201Z,17.42
2018-05-13T06:03:36.173Z,17.79
2018-05-13T06:08:33.413Z,18.01
2018-05-13T06:13:29.366Z,18.22
2018-05-13T06:18:25.356Z,18.35
2018-05-13T06:23:22.679Z,18.70
2018-05-13T06:28:19.563Z,18.71
2018-05-13T06:33:15.255Z,18.71
2018-05-13T06:38:11.832Z,18.73
2018-05-13T06:43:09.092Z,18.90
2018-05-13T06:48:04.749Z,18.55
2018-05-13T06:53:00.717Z,18.75
2018-05-13T06:57:57.584Z,18.96
2018-05-13T07:02:53.951Z,19.29
2018-05-13T07:07:51.408Z,19.73
2018-05-13T07:12:47.164Z,19.31
2018-05-13T07:17:44.366Z,18.99
2018-05-13T07:22:41.035Z,19.02
2018-05-13T07:27:36.771Z,19.29
2018-05-13T07:32:34.121Z,18.99
2018-05-13T07:37:29.941Z,19.36
2018-05-13T07:42:26.878Z,19.76
2018-05-13T07:47:22.703Z,20.11
2018-05-13T07:52:20.487Z,21.82
2018-05-13T07:57:18.915Z,23.59
2018-05-13T08:02:16.932Z,24.73
2018-05-13T08:07:13.712Z,25.35
2018-05-13T08:12:10.899Z,25.87
2018-05-13T08:17:08.628Z,26.53
2018-05-13T08:22:05.054Z,26.92
2018-05-13T08:27:01.515Z,26.78
2018-05-13T08:31:57.639Z,25.68
2018-05-13T08:36:53.765Z,26.28
2018-05-13T08:41:51.556Z,26.95
2018-05-13T08:46:47.756Z,27.03
2018-05-13T08:51:42.764Z,26.25
2018-05-13T08:56:37.651Z,25.43
2018-05-13T09:01:33.317Z,25.40
2018-05-13T09:06:31.042Z,25.28
2018-05-13T09:11:26.467Z,24.69
2018-05-13T09:16:23.546Z,25.07
2018-05-13T09:21:18.930Z,24.92
2018-05-13T09:26:15.653Z,24.42
2018-05-13T09:31:10.480Z,23.86
2018-05-13T09:36:07.848Z,25.33
2018-05-13T09:41:05.550Z,25.21
2018-05-13T09:46:02.161Z,24.51
2018-05-13T09:50:58.136Z,24.78
2018-05-13T09:55:53.238Z,24.84
2018-05-13T10:00:50.946Z,25.95
2018-05-13T10:05:47.576Z,26.06
2018-05-13T10:10:45.244Z,26.75
2018-05-13T10:15:40.654Z,25.83
2018-05-13T10:20:37.008Z,26.51
2018-05-13T10:25:34.489Z,26.63
2018-05-13T10:30:30.856Z,27.44
2018-05-13T10:35:27.539Z,26.21
2018-05-13T10:40:23.166Z,26.25
2018-05-13T10:45:19.241Z,25.99
2018-05-13T10:50:14.499Z,25.88
2018-05-13T10:55:12.317Z,27.40
2018-05-13T11:00:09.570Z,28.51
2018-05-13T11:05:07.361Z,27.47
2018-05-13T11:10:02.942Z,27.10
2018-05-13T11:14:59.192Z,27.48
2018-05-13T11:19:56.582Z,27.77
2018-05-13T11:24:53.134Z,28.12
2018-05-13T11:29:49.097Z,28.60
2018-05-13T11:34:45.036Z,28.97
2018-05-13T11:39:42.904Z,28.86
2018-05-13T11:44:39.520Z,29.45
2018-05-13T11:49:35.778Z,29.84
2018-05-13T11:54:29.967Z,29.10
2018-05-13T11:59:28.194Z,28.94
2018-05-13T12:04:23.899Z,28.27
2018-05-13T12:09:19.544Z,27.93
2018-05-13T12:14:13.737Z,27.32
2018-05-13T12:19:08.084Z,27.08
2018-05-13T12:24:02.990Z,26.75
2018-05-13T12:28:58.609Z,26.56
2018-05-13T12:33:54.065Z,25.33
2018-05-13T12:38:51.234Z,24.81
2018-05-13T12:43:47.381Z,24.42
2018-05-13T12:48:43.013Z,24.57
2018-05-13T12:53:38.999Z,24.57
2018-05-13T12:58:34.882Z,24.29
2018-05-13T13:03:30.249Z,23.58
2018-05-13T13:08:25.711Z,22.60
2018-05-13T13:13:20.152Z,21.17
2018-05-13T13:18:15.571Z,20.72
2018-05-13T13:23:10.603Z,19.34
2018-05-13T13:28:05.634Z,18.65
2018-05-13T13:33:01.015Z,18.37
2018-05-13T13:37:56.409Z,18.04
2018-05-13T13:42:52.124Z,17.98
2018-05-13T13:47:47.985Z,17.92
2018-05-13T13:52:44.071Z,17.87
2018-05-13T13:57:39.993Z,17.79
2018-05-13T14:02:36.097Z,17.79
2018-05-13T14:07:32.762Z,17.70
2018-05-13T14:12:28.608Z,17.74
2018-05-13T14:17:24.196Z,17.65
2018-05-13T14:22:20.127Z,17.51
2018-05-13T14:27:15.902Z,18.11
2018-05-13T14:32:12.939Z,17.72
2018-05-13T14:37:08.491Z,17.33
2018-05-13T14:42:04.167Z,17.20
2018-05-13T14:46:59.862Z,17.01
2018-05-13T14:51:55.571Z,16.89
2018-05-13T14:56:51.097Z,16.74
2018-05-13T15:01:47.328Z,16.69
2018-05-13T15:06:42.962Z,16.61
2018-05-13T15:11:38.332Z,16.57
2018-05-13T15:16:34.562Z,16.66
2018-05-13T15:21:30.841Z,16.54
2018-05-13T15:26:26.549Z,16.60
2018-05-13T15:31:22.538Z,16.66
2018-05-13T15:36:18.513Z,16.87
2018-05-13T15:41:14.441Z,16.81
2018-05-13T15:46:10.418Z,16.60
2018-05-13T15:51:06.532Z,16.66
2018-05-13T15:56:02.153Z,16.65
2018-05-13T16:00:58.130Z,16.71
2018-05-13T16:05:58.804Z,16.84
2018-05-13T16:10:53.648Z,16.72
2018-05-13T16:15:49.171Z,16.61
2018-05-13T16:20:44.954Z,16.66
2018-05-13T16:25:40.368Z,16.58
2018-05-13T16:30:37.518Z,16.53
2018-05-13T16:35:33.078Z,16.50
2018-05-13T16:40:29.430Z,16.53
2018-05-13T16:45:26.323Z,16.41
2018-05-13T16:50:22.042Z,16.47
2018-05-13T16:55:19.216Z,16.38
2018-05-13T17:00:15.903Z,16.53
2018-05-13T17:05:11.674Z,16.47
2018-05-13T17:10:07.583Z,16.43
2018-05-13T17:15:03.496Z,16.54
2018-05-13T17:20:00.440Z,16.64
2018-05-13T17:24:56.301Z,16.46
2018-05-13T17:29:52.124Z,16.64
2018-05-13T17:34:47.933Z,16.41
2018-05-13T17:39:44.432Z,16.04
2018-05-13T17:44:39.941Z,15.97
2018-05-13T17:49:35.576Z,16.04
2018-05-13T17:54:32.121Z,16.16
2018-05-13T17:59:28.018Z,16.46
2018-05-13T18:04:24.492Z,16.74
2018-05-13T18:09:20.775Z,16.89
2018-05-13T18:14:16.871Z,16.97
2018-05-13T18:19:12.783Z,16.79
2018-05-13T18:24:08.802Z,16.78
2018-05-13T18:29:04.640Z,16.83
2018-05-13T18:34:00.561Z,16.74
2018-05-13T18:38:56.402Z,16.69
2018-05-13T18:43:52.213Z,16.61
2018-05-13T18:48:48.897Z,16.64
2018-05-13T18:53:44.478Z,16.53
2018-05-13T18:58:40.474Z,16.46
2018-05-13T19:03:36.538Z,16.35
2018-05-13T19:08:32.123Z,16.32
2018-05-13T19:13:28.272Z,16.24
2018-05-13T19:18:24.107Z,16.10
2018-05-13T19:23:20.760Z,16.10
2018-05-13T19:28:16.311Z,15.97
2018-05-13T19:33:12.184Z,15.86
2018-05-13T19:38:07.900Z,15.65
2018-05-13T19:43:03.470Z,15.58
2018-05-13T19:48:00.223Z,15.49
2018-05-13T19:52:55.703Z,15.52
2018-05-13T19:57:51.526Z,15.59
2018-05-13T20:02:47.338Z,15.65
2018-05-13T20:07:44.277Z,15.83
2018-05-13T20:12:39.902Z,15.79
2018-05-13T20:17:36.822Z,15.82
2018-05-13T20:22:32.873Z,15.75
2018-05-13T20:27:29.594Z,15.75
2018-05-13T20:32:24.955Z,15.75
2018-05-13T20:37:20.638Z,15.64
2018-05-13T20:42:16.452Z,15.80
2018-05-13T20:47:13.571Z,15.72
2018-05-13T20:52:30.782Z,15.67
2018-05-13T20:57:24.257Z,15.55
2018-05-13T21:02:19.253Z,15.52
2018-05-13T21:07:15.219Z,15.49
2018-05-13T21:12:11.106Z,15.55
2018-05-13T21:17:06.994Z,15.76
2018-05-13T21:22:02.962Z,15.76
2018-05-13T21:27:00.068Z,15.72
2018-05-13T21:31:55.205Z,15.79
2018-05-13T21:36:50.954Z,15.84
2018-05-13T21:41:47.189Z,15.75
2018-05-13T21:46:42.970Z,16.01
2018-05-13T21:51:39.681Z,16.23
2018-05-13T21:56:35.511Z,16.23
2018-05-13T22:01:32.266Z,16.09
2018-05-13T22:06:28.870Z,16.05
2018-05-13T22:11:24.301Z,16.16
2018-05-13T22:16:20.259Z,16.10
2018-05-13T22:21:16.358Z,16.17
2018-05-13T22:26:12.502Z,16.28
2018-05-13T22:31:08.329Z,16.32
2018-05-13T22:36:04.314Z,16.31
2018-05-13T22:41:00.718Z,16.21
2018-05-13T22:45:57.896Z,16.17
2018-05-13T22:50:55.777Z,16.17
2018-05-13T22:55:57.576Z,16.15
2018-05-13T23:00:51.922Z,15.95
2018-05-13T23:05:48.084Z,15.82
2018-05-13T23:10:44.025Z,15.92
2018-05-13T23:15:39.431Z,15.94
2018-05-13T23:20:35.621Z,15.83
2018-05-13T23:25:31.267Z,15.94
2018-05-13T23:30:27.531Z,15.95
2018-05-13T23:35:24.537Z,15.91
2018-05-13T23:40:21.268Z,16.12
2018-05-13T23:45:17.170Z,16.05
2018-05-13T23:50:13.094Z,15.88
2018-05-13T23:55:08.995Z,15.94
